Virgo Phoenix — 3FMO8 — position and weather

sailwx.info

Track history (hours):
 
Tides and Currents Weather Stations Pressure Air Temp Water Temp Dewpoint Dewpoint Depression Visibility Wind Speed Wind Dir Waves Ship Positions

Virgo Phoenix

Last reported at 2015-Jun-29 03:32 UTC. Time now 2015-Jul-03 07:52 UTC.
Position N 35°01' E 139°34'.

Length 96 m; draft 5.8 m.

Type: Ship (hazmat cat B). MMSI: 370795000.

Date/timePositionNaut miles runAvg speedWind from/ knotsBaromVisibWave heightAir tempDewpointWater temp
2015-Jun-29 03:32N 35°01' E 139°34'1313.6
2015-Jun-29 02:33N 35°11' E 139°45'1212.3
2015-Jun-29 01:33N 35°23' E 139°42'9 9.3
2015-Jun-29 00:33N 35°32' E 139°46'0 0.1
2015-Jun-28 23:26N 35°31' E 139°46'0 0.0
2015-Jun-28 22:29N 35°31' E 139°46'0 0.0
2015-Jun-28 21:26N 35°31' E 139°46'0 0.0
2015-Jun-28 20:32N 35°31' E 139°46'0 0.0
2015-Jun-28 19:32N 35°31' E 139°46'0 0.0
2015-Jun-28 18:32N 35°31' E 139°46'0 0.0
2015-Jun-28 17:29N 35°31' E 139°46'0 0.0
2015-Jun-28 16:32N 35°31' E 139°46'0 0.0
2015-Jun-28 15:32N 35°31' E 139°46'0 0.0
2015-Jun-28 14:32N 35°31' E 139°46'0 0.0
2015-Jun-28 13:32N 35°31' E 139°46'0 0.0
2015-Jun-28 12:32N 35°31' E 139°46'0 0.0
2015-Jun-28 11:32N 35°31' E 139°46'0 0.0
2015-Jun-28 10:32N 35°31' E 139°46'0 0.0
2015-Jun-28 09:29N 35°31' E 139°46'0 0.0
2015-Jun-28 08:32N 35°31' E 139°46'0 0.0
2015-Jun-28 07:32N 35°31' E 139°46'0 0.0
2015-Jun-28 06:32N 35°31' E 139°46'0 0.0
2015-Jun-28 05:26N 35°31' E 139°46'0 0.0
2015-Jun-28 04:32N 35°31' E 139°46'0 0.0
2015-Jun-28 03:32N 35°31' E 139°46'0 0.0
2015-Jun-28 02:32N 35°31' E 139°46'0 0.0
2015-Jun-28 01:26N 35°31' E 139°46'0 0.0
2015-Jun-28 00:29N 35°31' E 139°46'0 0.0
2015-Jun-27 23:33N 35°31' E 139°46'5 4.7
2015-Jun-27 22:34N 35°27' E 139°43'1 0.8
2015-Jun-27 21:31N 35°28' E 139°44'0 0.0
2015-Jun-27 20:31N 35°28' E 139°44'3 3.6
2015-Jun-27 19:33N 35°25' E 139°46'1111.3
2015-Jun-27 18:33N 35°14' E 139°47'1212.4
2015-Jun-27 17:33N 35°03' E 139°40'  
Track history (hours):
 
Tides and Currents Weather Stations Pressure Air Temp Water Temp Dewpoint Dewpoint Depression Visibility Wind Speed Wind Dir Waves Ship Positions

Virgo Phoenix

Last reported at 2015-Jun-29 03:32 UTC. Time now 2015-Jul-03 07:52 UTC.
Position N 35°01' E 139°34'.

Length 96 m; draft 5.8 m.

Type: Ship (hazmat cat B). MMSI: 370795000.

Date/timePositionNaut miles runAvg speedWind from/ knotsBaromVisibWave heightAir tempDewpointWater temp
2015-Jun-29 03:32N 35°01' E 139°34'1313.6
2015-Jun-29 02:33N 35°11' E 139°45'1212.3
2015-Jun-29 01:33N 35°23' E 139°42'9 9.3
2015-Jun-29 00:33N 35°32' E 139°46'0 0.1
2015-Jun-28 23:26N 35°31' E 139°46'0 0.0
2015-Jun-28 22:29N 35°31' E 139°46'0 0.0
2015-Jun-28 21:26N 35°31' E 139°46'0 0.0
2015-Jun-28 20:32N 35°31' E 139°46'0 0.0
2015-Jun-28 19:32N 35°31' E 139°46'0 0.0
2015-Jun-28 18:32N 35°31' E 139°46'0 0.0
2015-Jun-28 17:29N 35°31' E 139°46'0 0.0
2015-Jun-28 16:32N 35°31' E 139°46'0 0.0
2015-Jun-28 15:32N 35°31' E 139°46'0 0.0
2015-Jun-28 14:32N 35°31' E 139°46'0 0.0
2015-Jun-28 13:32N 35°31' E 139°46'0 0.0
2015-Jun-28 12:32N 35°31' E 139°46'0 0.0
2015-Jun-28 11:32N 35°31' E 139°46'0 0.0
2015-Jun-28 10:32N 35°31' E 139°46'0 0.0
2015-Jun-28 09:29N 35°31' E 139°46'0 0.0
2015-Jun-28 08:32N 35°31' E 139°46'0 0.0
2015-Jun-28 07:32N 35°31' E 139°46'0 0.0
2015-Jun-28 06:32N 35°31' E 139°46'0 0.0
2015-Jun-28 05:26N 35°31' E 139°46'0 0.0
2015-Jun-28 04:32N 35°31' E 139°46'0 0.0
2015-Jun-28 03:32N 35°31' E 139°46'0 0.0
2015-Jun-28 02:32N 35°31' E 139°46'0 0.0
2015-Jun-28 01:26N 35°31' E 139°46'0 0.0
2015-Jun-28 00:29N 35°31' E 139°46'0 0.0
2015-Jun-27 23:33N 35°31' E 139°46'5 4.7
2015-Jun-27 22:34N 35°27' E 139°43'1 0.8
2015-Jun-27 21:31N 35°28' E 139°44'0 0.0
2015-Jun-27 20:31N 35°28' E 139°44'3 3.6
2015-Jun-27 19:33N 35°25' E 139°46'1111.3
2015-Jun-27 18:33N 35°14' E 139°47'1212.4
2015-Jun-27 17:33N 35°03' E 139°40'  

Dump ship's entire track history